Cape Coral, Florida
Current Conditions -  °F | °C
As of 12:53 PM on Tuesday 21 Oct 2014 (Local Time) from KFMY Reporting Station
Broken Clouds Broken Clouds  
Wind Chill: 82°   Ceiling: 3700
Heat Index: 87°   Visibility: 10mi
Dew Point: 72°   Wind: 12mph
Humidity: 71%   Direction: 210°SSW
Pressure: 29.94"   Gusts: NA
Location:  26.63°N, 81.96°W
Report Text: KFMY 211653Z 21010KT 10SM FEW024 BKN037 28/22 A2994 RMK AO2 SLP141 T02780222
Loading
Personal Weather Stations






























Interactive Weather Map
Tropical Storm Tracking
New forecast layout! Learn more

10-Day Weather Forecast

Advertisements
Track Severe Weather on mobile